Time;durP1;ratioP1;P1;durP2;ratioP2;P2;SDS_P1;SDS_P2;PMS_P1;PMS_P2;Temp;Humidity;BMP_temperature;BMP_pressure;BME280_temperature;BME280_humidity;BME280_pressure;Samples;Min_cycle;Max_cycle;Signal;HPM_P1;HPM_P2
2022/06/02 00:07:39;;;;;;;3.22;2.58;;;10.00;99.90;;;;;;4920218;29;20414;-89
2022/06/02 00:10:29;;;;;;;4.22;2.60;;;10.10;99.90;;;;;;4904154;29;20028;-88
2022/06/02 00:13:29;;;;;;;6.25;2.67;;;10.10;99.90;;;;;;4915943;29;20781;-87
2022/06/02 00:16:25;;;;;;;3.08;2.05;;;10.10;99.90;;;;;;4896987;29;20025;-87
2022/06/02 00:19:05;;;;;;;2.97;2.20;;;10.10;99.90;;;;;;4906569;29;20105;-88
2022/06/02 00:21:52;;;;;;;2.58;2.38;;;10.20;99.90;;;;;;4919803;29;20083;-87
2022/06/02 00:24:39;;;;;;;2.50;2.30;;;10.20;99.90;;;;;;4919305;29;20028;-89
2022/06/02 00:27:17;;;;;;;2.30;2.10;;;10.20;99.90;;;;;;4902711;29;20109;-89
2022/06/02 00:30:00;;;;;;;2.55;2.05;;;10.10;99.90;;;;;;4883808;29;20033;-88
2022/06/02 00:32:53;;;;;;;2.33;2.13;;;10.20;99.90;;;;;;4915553;29;20084;-88
2022/06/02 00:35:23;;;;;;;5.25;2.20;;;10.10;99.90;;;;;;4918646;29;20043;-88
2022/06/02 00:38:19;;;;;;;2.65;2.30;;;10.00;99.90;;;;;;4933638;29;20119;-88
2022/06/02 00:40:46;;;;;;;2.85;2.38;;;10.00;99.90;;;;;;4918099;29;20032;-88
2022/06/02 00:43:30;;;;;;;4.53;2.65;;;9.90;99.90;;;;;;4919095;29;20024;-89
2022/06/02 00:46:22;;;;;;;4.00;3.10;;;9.90;99.90;;;;;;4919037;29;20045;-89
2022/06/02 00:49:04;;;;;;;5.63;2.90;;;10.00;99.90;;;;;;4898758;29;20029;-88
2022/06/02 00:51:35;;;;;;;3.17;2.63;;;10.00;99.90;;;;;;4931075;29;20087;-89
2022/06/02 00:57:50;;;;;;;3.40;3.10;;;10.10;99.90;;;;;;4920377;29;20127;-89
2022/06/02 01:00:41;;;;;;;3.45;2.88;;;10.10;99.90;;;;;;4917180;29;20059;-87
2022/06/02 01:03:41;;;;;;;3.42;2.67;;;10.10;99.90;;;;;;4914715;29;20040;-89
2022/06/02 01:06:23;;;;;;;8.23;3.20;;;10.10;99.90;;;;;;4907283;29;20028;-89
2022/06/02 01:09:32;;;;;;;3.17;2.72;;;10.10;99.90;;;;;;4915211;29;20034;-88
2022/06/02 01:15:29;;;;;;;4.10;2.97;;;10.20;99.90;;;;;;4918677;29;20031;-89
2022/06/02 01:18:09;;;;;;;4.13;2.83;;;10.10;99.90;;;;;;4918764;29;20024;-88
2022/06/02 01:21:10;;;;;;;3.72;3.28;;;10.20;99.90;;;;;;4911064;29;20052;-87
2022/06/02 01:23:46;;;;;;;3.47;3.17;;;10.20;99.90;;;;;;4888964;29;20496;-90
2022/06/02 01:26:42;;;;;;;4.67;3.43;;;10.10;99.90;;;;;;4917916;29;20565;-88
2022/06/02 01:29:44;;;;;;;4.32;2.83;;;10.20;99.90;;;;;;4928635;29;20374;-87
2022/06/02 01:32:50;;;;;;;5.32;3.65;;;10.20;99.90;;;;;;4917580;29;20036;-88
2022/06/02 01:35:47;;;;;;;6.40;3.70;;;10.20;99.90;;;;;;4912283;29;20040;-87
2022/06/02 01:38:26;;;;;;;5.38;3.75;;;10.10;99.90;;;;;;4937334;29;20038;-88
2022/06/02 01:41:10;;;;;;;7.35;3.35;;;10.10;99.90;;;;;;4926877;29;20044;-89
2022/06/02 01:44:18;;;;;;;4.63;3.70;;;10.10;99.90;;;;;;4900864;29;20485;-88
2022/06/02 01:46:50;;;;;;;4.00;3.65;;;10.10;99.90;;;;;;4900969;29;20074;-88
2022/06/02 01:49:34;;;;;;;5.95;4.78;;;10.10;99.90;;;;;;4900913;29;20028;-87
2022/06/02 01:52:15;;;;;;;7.43;4.65;;;10.10;99.90;;;;;;4917986;29;20032;-89
2022/06/02 01:54:56;;;;;;;5.00;4.35;;;10.20;99.90;;;;;;4917934;29;20031;-88
2022/06/02 01:57:45;;;;;;;5.03;4.13;;;10.20;99.90;;;;;;4918048;29;20075;-89
2022/06/02 02:00:13;;;;;;;5.65;4.53;;;10.20;99.90;;;;;;4913501;29;20028;-87
2022/06/02 02:03:23;;;;;;;9.18;4.68;;;10.30;99.90;;;;;;4914403;29;20508;-89
2022/06/02 02:06:06;;;;;;;9.38;5.13;;;10.20;99.90;;;;;;4900611;29;20036;-90
2022/06/02 02:08:44;;;;;;;7.78;4.35;;;10.30;99.90;;;;;;4901130;29;20103;-89
2022/06/02 02:11:24;;;;;;;7.32;4.45;;;10.30;99.90;;;;;;4916304;29;20047;-88
2022/06/02 02:14:07;;;;;;;10.10;4.97;;;10.40;99.90;;;;;;4908818;29;20032;-88
2022/06/02 02:17:10;;;;;;;6.78;4.50;;;10.40;99.90;;;;;;4936171;29;20087;-90
2022/06/02 02:20:06;;;;;;;14.80;5.40;;;10.50;99.90;;;;;;4891763;29;20443;-89
2022/06/02 02:23:11;;;;;;;7.80;5.03;;;10.50;99.90;;;;;;4911692;29;20462;-89
2022/06/02 02:26:28;;;;;;;7.18;5.05;;;10.50;99.90;;;;;;4913094;29;20101;-89
2022/06/02 02:29:34;;;;;;;5.82;4.47;;;10.60;99.90;;;;;;4930775;29;20123;-89
2022/06/02 02:32:31;;;;;;;8.05;4.68;;;10.60;99.90;;;;;;4858510;29;20110;-87
2022/06/02 02:35:16;;;;;;;6.90;4.70;;;10.60;99.90;;;;;;4904992;29;20091;-88
2022/06/02 02:38:20;;;;;;;7.22;4.20;;;10.60;99.90;;;;;;4921642;29;20031;-90
2022/06/02 02:40:51;;;;;;;9.13;4.53;;;10.60;99.90;;;;;;4883023;29;20433;-90
2022/06/02 02:43:29;;;;;;;5.22;4.03;;;10.60;99.90;;;;;;4898910;29;20477;-89
2022/06/02 02:46:03;;;;;;;5.35;4.50;;;10.60;99.90;;;;;;4934922;29;20032;-88
2022/06/02 02:49:05;;;;;;;6.38;5.20;;;10.50;99.90;;;;;;4907547;29;20354;-89
2022/06/02 02:52:05;;;;;;;6.20;4.75;;;10.50;99.90;;;;;;4914584;29;20067;-90
2022/06/02 02:54:50;;;;;;;8.45;4.82;;;10.50;99.90;;;;;;4931402;29;20498;-89
2022/06/02 02:57:40;;;;;;;4.75;4.28;;;10.50;99.90;;;;;;4915855;29;20032;-88
2022/06/02 03:00:33;;;;;;;4.75;4.25;;;10.60;99.90;;;;;;4898714;29;20036;-88
2022/06/02 03:03:08;;;;;;;5.80;4.45;;;10.50;99.90;;;;;;4911637;29;20389;-90
2022/06/02 03:06:08;;;;;;;4.97;3.63;;;10.50;99.90;;;;;;4899817;29;20032;-88
2022/06/02 03:09:06;;;;;;;5.90;3.63;;;10.40;99.90;;;;;;4920585;29;20185;-87
2022/06/02 03:11:53;;;;;;;3.83;3.25;;;10.40;99.90;;;;;;4911777;29;20024;-87
2022/06/02 03:14:39;;;;;;;4.00;3.38;;;10.40;99.90;;;;;;4905920;29;20032;-88
2022/06/02 03:17:15;;;;;;;4.03;3.63;;;10.30;99.90;;;;;;4921744;29;20059;-87
2022/06/02 03:19:50;;;;;;;3.17;2.88;;;10.30;99.90;;;;;;4904142;29;20040;-87
2022/06/02 03:23:09;;;;;;;3.33;3.03;;;10.20;99.90;;;;;;4898594;29;20024;-87
2022/06/02 03:26:12;;;;;;;4.28;2.75;;;10.20;99.90;;;;;;4909163;29;20492;-87
2022/06/02 03:32:09;;;;;;;4.95;2.95;;;10.10;99.90;;;;;;4916895;29;20056;-86
2022/06/02 03:35:13;;;;;;;3.28;2.47;;;10.10;99.90;;;;;;4901462;29;20396;-87
2022/06/02 03:38:05;;;;;;;2.20;2.00;;;10.00;99.90;;;;;;4903476;29;20036;-87
2022/06/02 03:40:53;;;;;;;5.38;3.20;;;9.90;99.90;;;;;;4915080;29;20040;-86
2022/06/02 03:43:28;;;;;;;3.28;2.83;;;9.90;99.90;;;;;;4899941;29;20488;-86
2022/06/02 03:46:06;;;;;;;3.10;2.80;;;9.80;99.90;;;;;;4922745;29;20047;-85
2022/06/02 03:49:17;;;;;;;4.10;2.30;;;9.70;99.90;;;;;;4919118;29;20024;-86
2022/06/02 03:52:03;;;;;;;3.45;2.85;;;9.70;99.90;;;;;;4911906;29;20103;-86
2022/06/02 03:55:05;;;;;;;;;;;9.60;99.90;;;;;;4916879;29;20024;-86
2022/06/02 03:57:57;;;;;;;5.80;2.42;;;9.60;99.90;;;;;;4898910;29;19911;-86
2022/06/02 04:00:28;;;;;;;3.88;2.55;;;9.50;99.90;;;;;;4919710;29;20043;-86
2022/06/02 04:03:05;;;;;;;2.75;2.28;;;9.50;99.90;;;;;;4936844;29;20078;-86
2022/06/02 04:05:56;;;;;;;3.30;2.30;;;9.40;99.90;;;;;;4921656;29;20118;-86
2022/06/02 04:08:53;;;;;;;1.98;1.80;;;9.40;99.90;;;;;;4939004;29;20380;-86
2022/06/02 04:15:30;;;;;;;3.25;2.45;;;9.40;99.90;;;;;;4921590;29;20281;-86
2022/06/02 04:17:55;;;;;;;1.88;1.77;;;9.40;99.90;;;;;;4919519;29;20056;-86
2022/06/02 04:20:47;;;;;;;3.35;2.47;;;9.50;99.90;;;;;;4912463;29;20468;-86
2022/06/02 05:19:11;;;;;;;16.77;9.82;;;11.00;99.90;;;;;;6070465;23;20019;-84
2022/06/02 05:51:04;;;;;;;13.20;8.00;;;11.40;99.90;;;;;;5742831;23;20059;-91
2022/06/02 05:54:05;;;;;;;16.25;8.38;;;11.50;99.90;;;;;;4956811;29;20062;-91
2022/06/02 05:59:36;;;;;;;13.50;7.97;;;11.50;99.90;;;;;;5680413;23;20055;-90
2022/06/02 06:02:07;;;;;;;11.90;8.13;;;11.60;99.90;;;;;;4944962;29;20035;-91
2022/06/02 06:04:54;;;;;;;10.30;8.07;;;11.60;99.90;;;;;;4943571;29;20051;-91
2022/06/02 06:50:05;;;;;;;13.98;10.20;;;12.40;99.90;;;;;;5248509;23;20043;-83
2022/06/02 06:52:43;;;;;;;13.68;9.07;;;12.30;99.90;;;;;;4937292;29;20031;-83
2022/06/02 06:55:39;;;;;;;13.32;9.50;;;12.30;99.90;;;;;;4954782;29;20023;-83
2022/06/02 06:58:21;;;;;;;;;;;12.30;99.90;;;;;;4937865;29;20085;-84
2022/06/02 07:01:17;;;;;;;12.23;8.43;;;12.30;99.90;;;;;;4954368;29;19910;-83
2022/06/02 07:04:17;;;;;;;22.97;11.70;;;12.30;99.90;;;;;;4918849;29;20051;-83
2022/06/02 07:07:05;;;;;;;14.90;10.15;;;12.30;99.90;;;;;;4954484;29;20271;-83
2022/06/02 07:09:41;;;;;;;15.32;11.63;;;12.30;99.90;;;;;;4954406;29;20027;-83
2022/06/02 07:15:30;;;;;;;9.93;8.50;;;12.20;99.90;;;;;;4954313;29;20049;-83
2022/06/02 07:18:31;;;;;;;10.20;7.82;;;12.30;99.90;;;;;;4954251;29;20039;-83
2022/06/02 07:21:22;;;;;;;13.68;8.75;;;12.30;99.90;;;;;;4936800;29;20521;-83
2022/06/02 07:24:28;;;;;;;14.80;8.73;;;12.40;99.90;;;;;;4953237;29;20501;-83
2022/06/02 07:27:44;;;;;;;17.20;11.55;;;12.40;99.90;;;;;;4935099;29;20046;-83
2022/06/02 07:30:24;;;;;;;11.10;9.07;;;12.50;99.90;;;;;;4954018;29;20102;-83
2022/06/02 07:33:03;;;;;;;10.25;8.52;;;12.50;99.90;;;;;;4954554;29;20591;-83
2022/06/02 07:35:46;;;;;;;12.98;9.15;;;12.60;99.90;;;;;;4953921;29;20023;-83
2022/06/02 07:38:46;;;;;;;8.50;6.00;;;12.70;99.90;;;;;;4954554;29;20115;-82
2022/06/02 07:41:15;;;;;;;10.50;5.97;;;12.80;99.90;;;;;;4954604;29;20359;-83
2022/06/02 07:43:57;;;;;;;9.13;5.82;;;12.90;99.90;;;;;;4953840;29;20019;-82
2022/06/02 07:46:47;;;;;;;7.13;5.57;;;12.90;99.90;;;;;;4954671;29;20046;-82
2022/06/02 07:49:52;;;;;;;7.20;4.70;;;13.00;99.90;;;;;;4954406;29;20043;-82
2022/06/02 07:52:49;;;;;;;8.93;5.20;;;13.10;99.90;;;;;;4939686;29;20099;-82
2022/06/02 07:55:31;;;;;;;11.60;5.53;;;13.20;99.90;;;;;;4935423;29;20037;-83
2022/06/02 07:58:16;;;;;;;7.22;5.97;;;13.30;99.90;;;;;;4954372;29;20530;-83
2022/06/02 08:00:52;;;;;;;8.95;6.85;;;13.30;99.90;;;;;;4936956;29;20102;-83
2022/06/02 08:03:33;;;;;;;10.10;7.20;;;13.40;99.90;;;;;;4953423;28;20029;-83
2022/06/02 08:06:15;;;;;;;13.75;6.93;;;13.50;99.90;;;;;;4957830;28;20089;-84
2022/06/02 08:08:53;;;;;;;8.77;6.28;;;13.50;99.90;;;;;;4949841;28;20736;-82
2022/06/02 08:11:47;;;;;;;11.18;8.25;;;13.50;99.90;;;;;;4953104;29;20030;-83
2022/06/02 08:14:41;;;;;;;10.35;6.68;;;13.60;99.90;;;;;;4947307;28;20091;-83
2022/06/02 08:17:53;;;;;;;11.65;6.25;;;13.50;99.90;;;;;;4951556;29;20043;-83
2022/06/02 08:20:37;;;;;;;6.88;4.28;;;13.50;99.90;;;;;;4903983;29;20076;-83
2022/06/02 08:23:41;;;;;;;5.50;4.10;;;13.60;99.90;;;;;;4913302;29;20038;-83
2022/06/02 08:26:26;;;;;;;6.57;5.25;;;13.70;99.90;;;;;;4933992;29;20407;-83
2022/06/02 08:29:19;;;;;;;5.80;4.15;;;13.80;99.90;;;;;;4932658;29;20023;-82
2022/06/02 08:32:09;;;;;;;11.88;5.50;;;13.80;99.90;;;;;;4937828;29;20478;-83
2022/06/02 08:35:04;;;;;;;7.60;4.90;;;13.80;99.90;;;;;;4936177;29;20479;-83
2022/06/02 08:37:35;;;;;;;6.13;3.72;;;13.80;99.90;;;;;;4945182;29;20055;-83
2022/06/02 08:40:29;;;;;;;5.93;5.32;;;13.80;99.90;;;;;;4944930;29;20026;-82
2022/06/02 08:43:19;;;;;;;7.15;4.68;;;13.70;99.90;;;;;;4937370;29;20514;-82
2022/06/02 08:46:44;;;;;;;5.47;4.32;;;13.80;99.90;;;;;;4920772;29;20042;-81
2022/06/02 08:49:47;;;;;;;6.05;4.57;;;13.90;99.90;;;;;;4938386;29;20055;-81
2022/06/02 08:52:40;;;;;;;7.63;4.25;;;14.00;99.90;;;;;;4938107;29;20028;-82
2022/06/02 08:55:43;;;;;;;6.07;4.13;;;14.00;99.90;;;;;;4937529;29;20502;-82
2022/06/02 08:58:38;;;;;;;5.43;4.88;;;14.00;99.90;;;;;;4928530;29;20054;-81
2022/06/02 09:01:31;;;;;;;8.45;4.68;;;14.00;99.90;;;;;;4925838;29;20024;-81
2022/06/02 09:04:22;;;;;;;6.57;4.15;;;14.10;99.90;;;;;;4950367;28;20484;-82
2022/06/02 09:07:26;;;;;;;10.05;5.05;;;14.20;99.90;;;;;;4939793;29;20050;-81
2022/06/02 09:10:16;;;;;;;10.35;4.60;;;14.40;99.90;;;;;;4948505;29;20479;-81
2022/06/02 09:13:13;;;;;;;7.82;4.10;;;14.40;99.90;;;;;;4956519;29;20030;-82
2022/06/02 09:16:01;;;;;;;5.50;3.60;;;14.30;99.90;;;;;;4955994;29;20035;-82
2022/06/02 09:18:50;;;;;;;8.30;3.70;;;14.30;99.90;;;;;;4950786;28;20078;-82
2022/06/02 09:21:54;;;;;;;6.00;3.80;;;14.40;99.90;;;;;;4976028;28;20033;-82
2022/06/02 09:25:06;;;;;;;5.25;4.20;;;14.40;99.90;;;;;;4943657;28;20502;-82
2022/06/02 09:28:02;;;;;;;9.38;5.20;;;14.40;99.90;;;;;;4966429;28;20082;-82
2022/06/02 09:30:40;;;;;;;5.47;3.95;;;14.40;99.90;;;;;;4955708;28;20494;-83
2022/06/02 09:36:50;;;;;;;7.15;3.92;;;14.40;99.90;;;;;;4928608;29;20064;-83
2022/06/02 09:39:54;;;;;;;7.40;4.22;;;14.40;99.90;;;;;;4935390;29;20395;-83
2022/06/02 09:42:35;;;;;;;12.40;5.45;;;14.50;99.90;;;;;;4936774;29;20487;-83
2022/06/02 09:45:09;;;;;;;3.78;3.42;;;14.60;99.90;;;;;;4936144;29;20036;-83
2022/06/02 09:47:52;;;;;;;9.55;4.70;;;14.60;99.90;;;;;;4936804;29;20063;-83
2022/06/02 09:50:30;;;;;;;6.22;4.55;;;14.70;99.90;;;;;;4936644;29;20146;-83
2022/06/02 09:53:25;;;;;;;5.30;4.07;;;14.80;99.90;;;;;;4919033;29;20031;-83
2022/06/02 09:56:09;;;;;;;6.72;4.93;;;14.80;99.90;;;;;;4936489;29;20032;-83
2022/06/02 09:59:00;;;;;;;5.82;4.07;;;14.90;99.90;;;;;;4936077;29;20475;-83
2022/06/02 10:01:40;;;;;;;6.78;3.58;;;14.90;99.90;;;;;;4936564;29;20128;-83
2022/06/02 10:04:32;;;;;;;7.35;4.18;;;15.10;99.90;;;;;;4936261;29;20030;-83
2022/06/02 10:07:10;;;;;;;9.88;3.75;;;15.20;99.90;;;;;;4919349;29;20062;-83
2022/06/02 10:10:09;;;;;;;3.90;3.47;;;15.20;99.90;;;;;;4936270;29;20082;-83
2022/06/02 10:15:38;;;;;;;5.70;4.60;;;15.20;99.90;;;;;;4935981;29;20542;-82
2022/06/02 10:18:30;;;;;;;3.70;3.28;;;15.30;99.90;;;;;;4936249;29;20442;-83
2022/06/02 10:21:16;;;;;;;6.43;3.38;;;15.40;99.90;;;;;;4936021;29;20106;-83
2022/06/02 10:24:04;;;;;;;4.60;3.78;;;15.50;99.90;;;;;;4935981;29;20031;-83
2022/06/02 10:26:56;;;;;;;7.47;4.53;;;15.50;99.90;;;;;;4936070;29;20357;-83
2022/06/02 10:29:48;;;;;;;5.07;4.15;;;15.60;99.90;;;;;;4934453;29;20114;-83
2022/06/02 10:32:48;;;;;;;6.30;3.50;;;15.40;99.90;;;;;;4935876;29;20020;-82
2022/06/02 10:35:58;;;;;;;7.45;3.70;;;15.30;99.90;;;;;;4935801;29;20027;-83
2022/06/02 10:38:33;;;;;;;6.00;3.33;;;15.20;99.90;;;;;;4911639;29;20126;-83
2022/06/02 10:41:34;;;;;;;5.57;3.35;;;15.30;99.90;;;;;;4935864;29;20024;-83
2022/06/02 10:44:06;;;;;;;5.07;3.95;;;15.60;99.90;;;;;;4918388;29;20103;-83
2022/06/02 10:47:16;;;;;;;5.38;4.18;;;15.70;99.90;;;;;;4918589;29;20543;-83
2022/06/02 10:49:57;;;;;;;6.75;4.22;;;15.80;99.90;;;;;;4824546;29;20050;-83
2022/06/02 10:52:30;;;;;;;5.65;4.03;;;15.90;99.90;;;;;;4915074;29;20503;-82
2022/06/02 10:55:21;;;;;;;7.90;4.70;;;15.90;99.90;;;;;;4935442;29;20092;-83
2022/06/02 10:58:17;;;;;;;5.53;3.92;;;16.00;99.90;;;;;;4918440;29;20391;-83
2022/06/02 11:01:18;;;;;;;5.75;3.90;;;16.10;99.90;;;;;;4918338;29;20491;-82
2022/06/02 11:04:06;;;;;;;4.20;3.08;;;16.30;99.90;;;;;;4892659;29;20488;-83
2022/06/02 11:06:37;;;;;;;8.38;3.28;;;16.30;99.90;;;;;;4935288;29;20186;-83
2022/06/02 11:09:40;;;;;;;4.32;3.88;;;16.30;99.90;;;;;;4918349;29;20035;-82
2022/06/02 11:12:37;;;;;;;7.30;4.57;;;16.40;99.90;;;;;;4935367;29;20512;-82
2022/06/02 11:15:20;;;;;;;7.70;4.10;;;16.50;99.90;;;;;;4917818;29;20023;-82
2022/06/02 11:18:15;;;;;;;7.15;4.10;;;16.60;99.90;;;;;;4933993;29;20027;-82
2022/06/02 11:20:49;;;;;;;6.45;3.78;;;16.80;99.90;;;;;;4918224;29;20024;-82
2022/06/02 11:23:57;;;;;;;10.05;4.13;;;16.80;99.90;;;;;;4935074;29;20020;-83
2022/06/02 11:27:03;;;;;;;4.30;3.90;;;17.00;99.90;;;;;;4928123;28;20498;-83
2022/06/02 11:30:04;;;;;;;6.45;3.97;;;17.00;99.90;;;;;;4932187;28;20047;-83
2022/06/02 11:32:56;;;;;;;11.05;4.45;;;16.90;99.90;;;;;;4970704;28;20398;-83
2022/06/02 11:35:31;;;;;;;9.57;3.88;;;16.80;99.90;;;;;;4938727;29;20040;-83
2022/06/02 11:37:57;;;;;;;4.35;3.40;;;16.80;99.90;;;;;;4936800;29;20028;-82
2022/06/02 11:41:07;;;;;;;5.75;4.03;;;16.70;99.90;;;;;;4947151;28;20122;-82
2022/06/02 11:44:02;;;;;;;6.03;3.05;;;16.60;99.90;;;;;;4936740;29;20399;-82
2022/06/02 11:46:43;;;;;;;6.40;3.28;;;16.60;99.90;;;;;;4921545;29;20043;-82
2022/06/02 11:49:51;;;;;;;4.25;2.60;;;16.50;99.90;;;;;;4953671;29;20419;-82
2022/06/02 11:52:43;;;;;;;11.15;4.65;;;16.50;99.90;;;;;;4917295;29;20036;-82
2022/06/02 11:55:30;;;;;;;4.43;3.45;;;16.70;99.90;;;;;;4934665;29;20055;-82
2022/06/02 11:58:26;;;;;;;6.18;2.97;;;16.80;99.90;;;;;;4948313;29;20035;-82
2022/06/02 12:01:16;;;;;;;7.68;3.50;;;16.80;99.90;;;;;;4953625;29;20031;-82
2022/06/02 12:04:22;;;;;;;2.88;2.63;;;16.80;99.90;;;;;;4953873;29;20028;-82
2022/06/02 12:07:30;;;;;;;5.80;3.33;;;16.70;99.90;;;;;;4944008;28;20146;-82
2022/06/02 12:10:18;;;;;;;4.90;3.25;;;16.60;99.90;;;;;;4898537;29;20115;-82
2022/06/02 12:13:20;;;;;;;4.85;2.88;;;16.50;99.90;;;;;;4931786;29;20043;-82
2022/06/02 12:16:10;;;;;;;6.97;2.97;;;16.40;99.90;;;;;;4968830;28;20449;-82
2022/06/02 12:18:53;;;;;;;3.88;3.03;;;16.40;99.90;;;;;;4955367;28;20411;-81
2022/06/02 12:21:21;;;;;;;6.60;3.00;;;16.50;99.90;;;;;;4961571;28;20023;-81
2022/06/02 12:24:05;;;;;;;3.95;2.95;;;16.50;99.90;;;;;;4957863;29;20024;-81
2022/06/02 12:27:12;;;;;;;5.35;3.70;;;16.60;99.90;;;;;;4961820;28;20039;-81
2022/06/02 12:29:46;;;;;;;;;;;16.90;99.90;;;;;;4962821;28;20027;-81
2022/06/02 12:32:39;;;;;;;8.15;2.55;;;17.00;99.90;;;;;;4963395;28;20325;-81
2022/06/02 12:35:20;;;;;;;4.18;3.05;;;17.10;99.90;;;;;;4937747;29;20024;-81
2022/06/02 12:37:48;;;;;;;4.45;3.00;;;17.20;99.90;;;;;;4946192;28;20391;-81
2022/06/02 12:40:28;;;;;;;3.72;2.70;;;17.60;99.90;;;;;;4956727;29;20033;-81
2022/06/02 12:43:05;;;;;;;5.10;2.40;;;17.70;99.90;;;;;;4971814;28;20027;-81
2022/06/02 12:45:49;;;;;;;2.10;2.00;;;17.70;99.90;;;;;;4962557;28;20062;-81
2022/06/02 12:48:44;;;;;;;7.85;1.90;;;17.70;99.90;;;;;;4959267;28;20031;-81
2022/06/02 12:51:24;;;;;;;4.75;2.30;;;17.70;99.90;;;;;;4965964;28;20027;-82
2022/06/02 12:54:34;;;;;;;2.38;2.17;;;17.60;99.90;;;;;;4941872;29;20024;-82
2022/06/02 12:57:15;;;;;;;4.05;1.98;;;17.70;99.90;;;;;;4960501;28;20031;-81
2022/06/02 13:00:19;;;;;;;7.15;2.53;;;17.60;99.90;;;;;;4940716;28;20560;-81
2022/06/02 13:03:22;;;;;;;4.00;1.60;;;17.60;99.90;;;;;;4939650;29;20550;-82
2022/06/02 13:05:47;;;;;;;7.25;2.40;;;17.60;99.90;;;;;;4956571;29;20074;-82
2022/06/02 13:08:31;;;;;;;2.97;2.13;;;17.70;99.90;;;;;;4969307;28;20460;-82
2022/06/02 13:11:29;;;;;;;4.85;2.25;;;17.70;99.90;;;;;;4973883;28;20412;-82
2022/06/02 13:14:32;;;;;;;5.03;2.20;;;17.60;99.90;;;;;;4972322;28;20126;-82
2022/06/02 13:17:16;;;;;;;5.07;2.05;;;17.60;99.90;;;;;;4975674;28;20387;-82
2022/06/02 13:20:03;;;;;;;7.45;2.58;;;17.60;99.90;;;;;;4971067;28;20438;-82
2022/06/02 13:23:05;;;;;;;2.83;1.88;;;17.60;99.90;;;;;;4945282;28;20036;-82
2022/06/02 13:25:40;;;;;;;2.60;1.55;;;17.70;99.90;;;;;;4973318;28;20552;-81
2022/06/02 13:28:25;;;;;;;5.63;1.75;;;17.70;99.90;;;;;;4932814;28;20031;-82
2022/06/02 13:31:20;;;;;;;3.70;2.15;;;17.90;99.90;;;;;;4937693;29;20035;-82
2022/06/02 13:34:23;;;;;;;4.18;1.80;;;18.00;99.90;;;;;;4961997;28;20027;-82
2022/06/02 13:37:01;;;;;;;1.80;1.70;;;18.20;99.90;;;;;;4971712;28;20479;-82
2022/06/02 13:39:42;;;;;;;3.72;2.10;;;18.30;99.90;;;;;;4971637;28;20119;-82
2022/06/02 13:42:25;;;;;;;2.55;1.88;;;18.30;99.90;;;;;;4971473;28;20490;-82
2022/06/02 13:45:17;;;;;;;4.65;2.10;;;18.30;99.90;;;;;;4969393;28;20752;-82
2022/06/02 13:48:14;;;;;;;5.85;1.80;;;18.30;99.90;;;;;;4933119;29;20036;-82
2022/06/02 13:51:08;;;;;;;4.32;1.70;;;18.50;99.90;;;;;;4951941;28;20042;-82
2022/06/02 14:00:36;;;;;;;2.92;1.38;;;18.30;99.90;;;;;;4949043;29;20089;-81
2022/06/02 14:03:27;;;;;;;2.15;1.17;;;18.50;99.90;;;;;;4954359;29;20083;-82
2022/06/02 14:06:07;;;;;;;10.38;1.30;;;18.50;99.90;;;;;;4963350;28;20028;-82
2022/06/02 14:08:32;;;;;;;3.15;1.50;;;18.40;99.90;;;;;;4951268;28;20085;-82
2022/06/02 14:11:17;;;;;;;1.95;1.50;;;18.20;99.90;;;;;;4965104;28;20023;-82
2022/06/02 14:14:11;;;;;;;5.70;1.77;;;18.10;99.90;;;;;;4943518;28;20028;-82
2022/06/02 14:16:55;;;;;;;1.85;1.25;;;18.00;99.90;;;;;;4946900;28;20024;-82
2022/06/02 14:19:27;;;;;;;1.23;1.13;;;17.90;99.90;;;;;;4963060;28;20054;-82
2022/06/02 14:22:21;;;;;;;2.13;1.25;;;17.80;99.90;;;;;;4964318;28;20106;-82
2022/06/02 14:25:12;;;;;;;1.40;1.20;;;17.70;99.90;;;;;;4945105;29;20387;-82
2022/06/02 14:27:50;;;;;;;1.88;1.38;;;17.60;99.90;;;;;;4946436;29;20094;-82
2022/06/02 14:30:50;;;;;;;3.25;1.50;;;17.60;99.90;;;;;;4942660;28;20027;-82
2022/06/02 14:33:35;;;;;;;4.45;1.30;;;17.60;99.90;;;;;;4911462;29;20054;-82
2022/06/02 14:36:25;;;;;;;2.95;1.60;;;17.60;99.90;;;;;;4940605;28;20031;-82
2022/06/02 14:39:10;;;;;;;4.80;1.38;;;17.50;99.90;;;;;;4947472;28;20106;-82
2022/06/02 14:41:47;;;;;;;2.38;1.42;;;17.60;99.90;;;;;;4945683;28;20031;-82
2022/06/02 14:44:29;;;;;;;1.85;1.48;;;17.60;99.90;;;;;;4933065;29;20030;-81
2022/06/02 14:47:03;;;;;;;3.60;0.90;;;17.60;99.90;;;;;;4935768;29;20048;-82
2022/06/02 14:49:54;;;;;;;1.17;1.08;;;17.50;99.90;;;;;;4951037;28;20052;-82
2022/06/02 14:52:41;;;;;;;7.60;1.05;;;17.50;99.90;;;;;;4957443;28;20063;-81
2022/06/02 14:55:17;;;;;;;3.25;1.20;;;17.50;99.90;;;;;;4972090;28;20471;-82
2022/06/02 14:58:04;;;;;;;1.42;1.33;;;17.40;99.90;;;;;;4974281;28;20023;-81
2022/06/02 15:01:12;;;;;;;0.98;0.93;;;17.40;99.90;;;;;;4933145;28;20083;-82
2022/06/02 15:04:02;;;;;;;1.65;1.40;;;17.30;99.90;;;;;;4909046;28;20407;-81
2022/06/02 15:06:43;;;;;;;2.63;1.25;;;17.30;99.90;;;;;;4951520;28;20120;-82
2022/06/02 15:09:32;;;;;;;4.82;1.30;;;17.30;99.90;;;;;;4955414;29;20059;-82
2022/06/02 15:12:51;;;;;;;2.03;0.90;;;17.30;99.90;;;;;;4930409;29;20075;-82
2022/06/02 15:15:37;;;;;;;4.20;1.10;;;17.30;99.90;;;;;;4876059;29;20084;-81
2022/06/02 15:18:25;;;;;;;2.25;1.00;;;17.30;99.90;;;;;;4948471;28;20042;-82
2022/06/02 15:21:00;;;;;;;8.93;1.30;;;17.30;99.90;;;;;;4918775;29;20031;-82
2022/06/02 15:23:51;;;;;;;2.38;1.70;;;17.30;99.90;;;;;;4910306;29;20066;-82
2022/06/02 15:26:54;;;;;;;5.15;1.27;;;17.50;99.90;;;;;;4947810;28;20039;-81
2022/06/02 15:29:51;;;;;;;1.63;0.98;;;17.60;99.90;;;;;;4956865;28;20023;-82
2022/06/02 15:32:38;;;;;;;;;;;17.60;99.90;;;;;;4959135;28;20039;-82
2022/06/02 15:35:32;;;;;;;2.85;1.10;;;17.60;99.90;;;;;;4936490;29;19989;-82
2022/06/02 15:38:15;;;;;;;2.05;1.23;;;17.70;99.90;;;;;;4966594;28;20491;-81
2022/06/02 15:41:13;;;;;;;3.03;1.35;;;17.70;99.90;;;;;;4935552;29;20028;-81
2022/06/02 15:43:59;;;;;;;4.13;1.40;;;17.80;99.90;;;;;;4930432;29;20067;-81
2022/06/02 15:46:43;;;;;;;1.20;1.20;;;17.90;99.90;;;;;;4934465;28;20072;-81
2022/06/02 15:50:07;;;;;;;1.25;1.15;;;18.00;99.90;;;;;;4954179;28;20057;-82
2022/06/02 15:53:00;;;;;;;1.88;1.10;;;18.00;99.90;;;;;;4950624;28;20090;-82
2022/06/02 15:55:34;;;;;;;3.47;1.15;;;18.20;99.90;;;;;;4961291;28;20055;-82
2022/06/02 15:58:25;;;;;;;1.30;0.73;;;18.30;99.90;;;;;;4942794;28;20034;-81
2022/06/02 16:01:29;;;;;;;3.10;1.00;;;18.30;99.90;;;;;;4941918;29;20094;-82
2022/06/02 16:04:40;;;;;;;1.55;1.00;;;18.30;99.70;;;;;;4955959;28;20379;-82
2022/06/02 16:07:35;;;;;;;3.15;1.17;;;18.40;99.90;;;;;;4956413;29;20023;-82
2022/06/02 16:14:00;;;;;;;3.47;1.05;;;18.60;99.20;;;;;;4918702;28;20031;-83
2022/06/02 16:17:16;;;;;;;3.33;0.90;;;18.70;97.90;;;;;;4951587;28;20065;-83
2022/06/02 16:20:12;;;;;;;3.40;1.20;;;18.90;94.90;;;;;;4962522;28;20380;-83
2022/06/02 16:22:41;;;;;;;1.13;1.00;;;18.90;96.90;;;;;;4961989;28;20044;-83
2022/06/02 16:25:25;;;;;;;3.47;1.10;;;19.00;98.40;;;;;;4940021;28;20114;-82
2022/06/02 16:28:22;;;;;;;1.83;1.13;;;19.10;99.90;;;;;;4944403;29;20773;-82
2022/06/02 16:31:13;;;;;;;4.65;1.30;;;19.10;96.30;;;;;;4945052;29;20027;-83
2022/06/02 16:34:12;;;;;;;6.95;0.82;;;19.00;97.90;;;;;;4944940;29;20035;-83
2022/06/02 16:37:11;;;;;;;4.35;0.90;;;19.10;92.50;;;;;;4951434;29;20368;-83
2022/06/02 16:40:17;;;;;;;7.45;1.25;;;18.90;95.20;;;;;;4949338;29;20031;-83
2022/06/02 16:43:14;;;;;;;1.80;0.93;;;18.80;98.60;;;;;;4966448;28;20542;-82
2022/06/02 16:45:46;;;;;;;4.95;1.20;;;18.60;99.90;;;;;;4953507;28;20451;-82
2022/06/02 16:48:20;;;;;;;4.78;1.30;;;18.70;99.90;;;;;;4954892;29;20031;-83
2022/06/02 16:50:48;;;;;;;2.78;1.20;;;18.70;97.70;;;;;;4952958;29;20039;-82
2022/06/02 16:56:34;;;;;;;1.58;1.00;;;18.60;99.90;;;;;;4950735;29;20038;-81
2022/06/02 16:59:04;;;;;;;2.78;1.58;;;18.50;98.40;;;;;;4962047;28;20105;-81
2022/06/02 17:02:08;;;;;;;2.28;1.20;;;18.50;99.90;;;;;;4931332;28;20046;-81
2022/06/02 17:04:55;;;;;;;4.53;0.98;;;18.40;99.90;;;;;;4936616;29;20058;-83
2022/06/02 17:07:48;;;;;;;5.07;1.42;;;18.30;99.90;;;;;;4946433;29;20035;-82
2022/06/02 17:10:25;;;;;;;3.78;1.63;;;18.30;99.90;;;;;;4948586;28;20023;-82
2022/06/02 17:13:33;;;;;;;2.60;1.42;;;18.30;99.90;;;;;;4945252;29;20023;-82
2022/06/02 17:16:30;;;;;;;2.95;1.13;;;18.30;99.90;;;;;;4954956;28;20529;-82
2022/06/02 17:19:34;;;;;;;2.33;1.70;;;18.20;99.90;;;;;;4956015;28;20058;-82
2022/06/02 17:22:31;;;;;;;6.53;2.10;;;18.20;99.90;;;;;;4951570;29;20039;-82
2022/06/02 17:25:22;;;;;;;2.35;1.48;;;18.20;99.90;;;;;;4911838;29;20062;-82
2022/06/02 17:28:16;;;;;;;1.35;1.08;;;18.10;99.90;;;;;;4955125;29;20058;-83
2022/06/02 17:31:08;;;;;;;5.85;1.60;;;18.10;99.90;;;;;;4951624;29;20043;-83
2022/06/02 17:34:11;;;;;;;2.70;1.25;;;18.00;99.90;;;;;;4969845;28;20019;-83
2022/06/02 17:36:51;;;;;;;6.50;1.80;;;17.90;99.90;;;;;;4955698;29;20034;-82